createdAt,value
2022-12-03T00:02:09.277Z,51.92
2022-12-03T00:04:56.562Z,52.40
2022-12-03T00:07:43.877Z,48.53
2022-12-03T00:10:31.216Z,44.25
2022-12-03T00:13:18.306Z,54.33
2022-12-03T00:16:07.517Z,47.50
2022-12-03T00:18:55.653Z,46.70
2022-12-03T00:21:42.761Z,45.53
2022-12-03T00:24:29.923Z,49.70
2022-12-03T00:27:16.955Z,44.22
2022-12-03T00:30:03.797Z,52.20
2022-12-03T00:32:52.013Z,52.50
2022-12-03T00:35:39.063Z,51.55
2022-12-03T00:38:26.222Z,50.53
2022-12-03T00:41:13.220Z,49.63
2022-12-03T00:44:00.505Z,48.92
2022-12-03T00:46:47.856Z,57.13
2022-12-03T00:49:36.135Z,50.55
2022-12-03T00:52:23.128Z,56.25
2022-12-03T00:55:10.922Z,51.90
2022-12-03T00:57:58.053Z,47.17
2022-12-03T01:00:45.182Z,56.35
2022-12-03T01:03:32.152Z,48.42
2022-12-03T01:06:21.258Z,52.63
2022-12-03T01:09:08.204Z,52.60
2022-12-03T01:11:55.337Z,51.47
2022-12-03T01:14:42.555Z,50.33
2022-12-03T01:17:29.641Z,49.65
2022-12-03T01:20:16.956Z,57.10
2022-12-03T01:23:05.548Z,48.22
2022-12-03T01:25:52.561Z,53.20
2022-12-03T01:28:41.845Z,49.47
2022-12-03T01:31:45.996Z,44.58
2022-12-03T01:34:33.390Z,48.97
2022-12-03T01:37:22.787Z,47.25
2022-12-03T01:40:16.671Z,54.28
2022-12-03T01:43:03.634Z,49.10
2022-12-03T01:45:50.547Z,41.40
2022-12-03T01:48:40.043Z,50.38
2022-12-03T01:51:27.190Z,45.03
2022-12-03T01:54:19.360Z,43.90
2022-12-03T01:57:12.439Z,45.47
2022-12-03T02:00:01.311Z,47.70
2022-12-03T02:02:56.219Z,43.35
2022-12-03T02:05:43.358Z,47.45
2022-12-03T02:08:32.167Z,43.40
2022-12-03T02:11:23.551Z,50.22
2022-12-03T02:14:13.945Z,42.63
2022-12-03T02:17:01.914Z,48.58
2022-12-03T02:19:49.283Z,44.63
2022-12-03T02:22:41.824Z,45.72
2022-12-03T02:25:33.163Z,42.92
2022-12-03T02:28:20.256Z,48.80
2022-12-03T02:31:07.419Z,41.50
2022-12-03T02:33:54.709Z,41.95
2022-12-03T02:36:41.990Z,44.47
2022-12-03T02:39:29.370Z,38.75
2022-12-03T02:42:36.530Z,45.08
2022-12-03T02:45:26.662Z,41.45
2022-12-03T02:48:16.938Z,44.80
2022-12-03T02:51:08.133Z,40.42
2022-12-03T02:53:56.875Z,46.75
2022-12-03T02:56:44.230Z,43.85
2022-12-03T02:59:32.805Z,43.35
2022-12-03T03:02:20.321Z,47.25
2022-12-03T03:05:09.584Z,42.15
2022-12-03T03:07:59.278Z,41.67
2022-12-03T03:10:48.096Z,40.42
2022-12-03T03:13:36.576Z,42.95
2022-12-03T03:16:25.139Z,44.45
2022-12-03T03:19:12.728Z,46.70
2022-12-03T03:21:59.744Z,42.08
2022-12-03T03:24:46.706Z,43.15
2022-12-03T03:27:34.536Z,36.60
2022-12-03T03:30:21.625Z,47.00
2022-12-03T03:33:10.287Z,46.33
2022-12-03T03:35:57.193Z,46.20
2022-12-03T03:38:44.506Z,48.03
2022-12-03T03:41:32.207Z,46.10
2022-12-03T03:44:19.039Z,51.70
2022-12-03T03:47:06.534Z,39.92
2022-12-03T03:49:55.706Z,47.60
2022-12-03T03:52:43.331Z,46.00
2022-12-03T03:55:31.226Z,46.70
2022-12-03T03:58:18.396Z,42.10
2022-12-03T04:01:05.624Z,39.15
2022-12-03T04:03:53.803Z,48.53
2022-12-03T04:06:41.973Z,46.70
2022-12-03T04:09:29.085Z,46.65
2022-12-03T04:12:34.877Z,46.80
2022-12-03T04:15:22.167Z,49.15
2022-12-03T04:18:41.491Z,43.15
2022-12-03T04:21:46.107Z,49.38
2022-12-03T04:24:34.089Z,52.20
2022-12-03T04:27:38.665Z,49.95
2022-12-03T04:30:25.854Z,52.13
2022-12-03T04:33:30.404Z,50.25
2022-12-03T04:36:17.413Z,45.00
2022-12-03T04:39:04.717Z,56.05
2022-12-03T04:41:53.098Z,50.83
2022-12-03T04:44:40.146Z,45.20
2022-12-03T04:47:26.944Z,49.08
2022-12-03T04:50:13.879Z,46.33
2022-12-03T04:53:00.902Z,45.35
2022-12-03T04:55:48.201Z,46.38
2022-12-03T04:58:36.787Z,52.88
2022-12-03T05:01:24.270Z,54.17
2022-12-03T05:04:11.490Z,54.13
2022-12-03T05:06:58.550Z,47.42
2022-12-03T05:09:45.505Z,54.38
2022-12-03T05:12:32.515Z,58.67
2022-12-03T05:15:20.894Z,59.53
2022-12-03T05:18:07.742Z,55.28
2022-12-03T05:20:54.819Z,55.88
2022-12-03T05:23:41.662Z,54.13
2022-12-03T05:26:28.811Z,53.22
2022-12-03T05:29:15.559Z,53.83
2022-12-03T05:32:04.193Z,78.53
2022-12-03T05:34:51.693Z,49.88
2022-12-03T05:37:39.269Z,56.55
2022-12-03T05:40:26.572Z,50.05
2022-12-03T05:43:12.722Z,49.97
2022-12-03T05:48:51.570Z,61.42
2022-12-03T05:51:38.648Z,53.20
2022-12-03T05:54:25.731Z,50.15
2022-12-03T05:57:12.994Z,58.05
2022-12-03T06:00:00.041Z,56.17
2022-12-03T06:02:47.516Z,50.03
2022-12-03T06:05:36.395Z,45.40
2022-12-03T06:08:23.484Z,45.70
2022-12-03T06:11:10.410Z,54.17
2022-12-03T06:13:57.642Z,44.65
2022-12-03T06:16:44.688Z,47.72
2022-12-03T06:19:31.629Z,49.20
2022-12-03T06:22:20.182Z,44.42
2022-12-03T06:25:07.555Z,47.35
2022-12-03T06:27:54.463Z,48.60
2022-12-03T06:30:41.271Z,46.30
2022-12-03T06:33:28.140Z,38.85
2022-12-03T06:36:18.819Z,41.60
2022-12-03T06:39:11.117Z,45.58
2022-12-03T06:41:58.234Z,37.17
2022-12-03T06:44:45.044Z,43.47
2022-12-03T06:47:32.098Z,45.10
2022-12-03T06:50:19.465Z,39.83
2022-12-03T06:53:06.443Z,42.35
2022-12-03T06:55:55.076Z,41.45
2022-12-03T06:58:42.113Z,44.60
2022-12-03T07:01:29.549Z,40.78
2022-12-03T07:04:16.518Z,42.55
2022-12-03T07:07:03.832Z,44.47
2022-12-03T07:09:50.870Z,42.90
2022-12-03T07:12:39.385Z,41.28
2022-12-03T07:15:26.395Z,37.20
2022-12-03T07:18:13.242Z,47.92
2022-12-03T07:21:00.509Z,37.78
2022-12-03T07:23:47.334Z,41.92
2022-12-03T07:26:34.674Z,44.58
2022-12-03T07:29:23.430Z,40.40
2022-12-03T07:32:10.338Z,43.08
2022-12-03T07:34:57.346Z,49.03
2022-12-03T07:37:44.610Z,41.90
2022-12-03T07:40:31.420Z,43.13
2022-12-03T07:43:18.515Z,42.17
2022-12-03T07:46:07.159Z,44.00
2022-12-03T07:48:54.216Z,41.90
2022-12-03T07:51:41.174Z,47.63
2022-12-03T07:54:28.131Z,53.45
2022-12-03T07:57:15.485Z,43.67
2022-12-03T08:00:02.267Z,45.70
2022-12-03T08:02:53.160Z,44.35
2022-12-03T08:05:40.417Z,46.95
2022-12-03T08:08:27.814Z,41.90
2022-12-03T08:11:16.300Z,47.00
2022-12-03T08:14:08.489Z,41.53
2022-12-03T08:16:55.382Z,46.67
2022-12-03T08:19:46.800Z,45.92
2022-12-03T08:22:33.849Z,47.67
2022-12-03T08:25:23.889Z,35.38
2022-12-03T08:28:15.072Z,44.00
2022-12-03T08:31:04.194Z,45.35
2022-12-03T08:33:53.217Z,49.15
2022-12-03T08:36:41.781Z,42.03
2022-12-03T08:39:33.396Z,39.45
2022-12-03T08:42:40.863Z,41.25
2022-12-03T08:45:40.042Z,43.88
2022-12-03T08:48:33.871Z,50.05
2022-12-03T08:51:25.190Z,52.03
2022-12-03T08:54:19.388Z,50.67
2022-12-03T08:57:23.966Z,47.58
2022-12-03T09:00:19.760Z,51.50
2022-12-03T09:03:11.724Z,55.53
2022-12-03T09:05:58.698Z,47.40
2022-12-03T09:08:45.525Z,52.63
2022-12-03T09:11:34.278Z,47.42
2022-12-03T09:14:22.806Z,43.88
2022-12-03T09:17:09.861Z,45.63
2022-12-03T09:19:56.567Z,47.80
2022-12-03T09:22:43.413Z,48.92
2022-12-03T09:25:30.663Z,59.13
2022-12-03T09:28:20.159Z,46.47
2022-12-03T09:31:07.228Z,51.50
2022-12-03T09:33:54.415Z,51.03
2022-12-03T09:36:41.833Z,52.38
2022-12-03T09:39:28.644Z,57.40
2022-12-03T09:42:16.372Z,48.45
2022-12-03T09:45:10.891Z,48.42
2022-12-03T09:47:58.468Z,49.30
2022-12-03T09:50:46.671Z,49.67
2022-12-03T09:53:39.683Z,49.13
2022-12-03T09:56:28.516Z,50.90
2022-12-03T09:59:16.466Z,55.78
2022-12-03T10:02:09.877Z,55.22
2022-12-03T10:04:58.012Z,50.17
2022-12-03T10:07:45.213Z,61.30
2022-12-03T10:10:32.353Z,59.22
2022-12-03T10:13:26.171Z,50.33
2022-12-03T10:16:15.432Z,49.20
2022-12-03T10:19:04.527Z,58.55
2022-12-03T10:21:52.284Z,51.97
2022-12-03T10:24:40.027Z,55.78
2022-12-03T10:27:31.834Z,51.28
2022-12-03T10:30:23.343Z,55.05
2022-12-03T10:33:18.892Z,55.65
2022-12-03T10:36:20.488Z,48.78
2022-12-03T10:39:11.715Z,57.20
2022-12-03T10:42:15.521Z,58.05
2022-12-03T10:45:18.201Z,59.60
2022-12-03T10:48:13.451Z,57.53
2022-12-03T10:51:04.790Z,55.03
2022-12-03T10:53:54.365Z,54.97
2022-12-03T10:56:41.823Z,53.38
2022-12-03T10:59:32.745Z,58.10
2022-12-03T11:02:22.030Z,56.42
2022-12-03T11:05:14.124Z,50.30
2022-12-03T11:08:01.298Z,59.03
2022-12-03T11:10:57.851Z,53.05
2022-12-03T11:13:49.312Z,63.65
2022-12-03T11:17:10.053Z,52.35
2022-12-03T11:19:57.038Z,57.97
2022-12-03T11:22:46.571Z,55.53
2022-12-03T11:25:50.651Z,56.72
2022-12-03T11:28:55.991Z,54.67
2022-12-03T11:31:46.610Z,55.08
2022-12-03T11:34:43.073Z,57.05
2022-12-03T11:37:30.338Z,51.70
2022-12-03T11:40:39.562Z,62.15
2022-12-03T11:44:03.001Z,50.05
2022-12-03T11:46:50.817Z,54.50
2022-12-03T11:49:52.590Z,62.45
2022-12-03T11:52:45.253Z,60.10
2022-12-03T11:55:35.036Z,55.90
2022-12-03T11:58:26.952Z,55.58
2022-12-03T12:01:16.907Z,51.38
2022-12-03T12:04:05.088Z,55.53
2022-12-03T12:06:53.566Z,54.00
2022-12-03T12:09:55.347Z,59.33
2022-12-03T12:12:54.359Z,51.97
2022-12-03T12:15:46.160Z,54.78
2022-12-03T12:18:44.865Z,56.63
2022-12-03T12:21:43.800Z,58.67
2022-12-03T12:24:38.356Z,61.42
2022-12-03T12:27:32.432Z,61.53
2022-12-03T12:30:21.741Z,53.17
2022-12-03T12:33:23.244Z,58.40
2022-12-03T12:36:12.599Z,56.20
2022-12-03T12:39:01.420Z,52.45
2022-12-03T12:41:51.796Z,56.70
2022-12-03T12:44:39.656Z,54.45
2022-12-03T12:47:27.027Z,50.15
2022-12-03T12:50:15.581Z,58.03
2022-12-03T12:53:10.323Z,58.33
2022-12-03T12:55:59.510Z,57.10
2022-12-03T12:58:46.726Z,61.60
2022-12-03T13:01:35.591Z,53.28
2022-12-03T13:04:24.897Z,54.08
2022-12-03T13:07:11.951Z,56.00
2022-12-03T13:10:13.808Z,65.57
2022-12-03T13:13:03.118Z,61.22
2022-12-03T13:15:54.334Z,67.00
2022-12-03T13:18:46.354Z,61.92
2022-12-03T13:21:39.165Z,69.57
2022-12-03T13:24:35.217Z,61.55
2022-12-03T13:27:29.614Z,68.72
2022-12-03T13:30:19.867Z,69.22
2022-12-03T13:33:14.629Z,68.28
2022-12-03T13:36:02.940Z,67.97
2022-12-03T13:38:50.398Z,71.90
2022-12-03T13:41:54.652Z,64.78
2022-12-03T13:44:46.422Z,68.80
2022-12-03T13:47:34.132Z,66.53
2022-12-03T13:50:25.299Z,66.68
2022-12-03T13:53:20.721Z,78.35
2022-12-03T13:56:28.871Z,73.65
2022-12-03T13:59:19.357Z,66.82
2022-12-03T14:02:10.157Z,72.57
2022-12-03T14:05:00.494Z,76.95
2022-12-03T14:07:48.285Z,78.10
2022-12-03T14:10:35.206Z,69.18
2022-12-03T14:13:22.202Z,74.57
2022-12-03T14:16:09.593Z,71.05
2022-12-03T14:18:57.790Z,72.95
2022-12-03T14:21:44.987Z,79.65
2022-12-03T14:24:31.955Z,74.75
2022-12-03T14:27:19.494Z,76.63
2022-12-03T14:30:07.550Z,73.88
2022-12-03T14:32:54.562Z,77.32
2022-12-03T14:35:43.154Z,73.70
2022-12-03T14:38:30.328Z,84.45
2022-12-03T14:41:34.764Z,81.43
2022-12-03T14:44:23.641Z,77.88
2022-12-03T14:47:10.911Z,76.93
2022-12-03T14:49:58.069Z,92.95
2022-12-03T14:52:46.620Z,75.90
2022-12-03T14:55:33.951Z,87.53
2022-12-03T14:58:21.332Z,79.80
2022-12-03T15:01:08.662Z,79.80
2022-12-03T15:03:55.465Z,86.72
2022-12-03T15:06:42.302Z,85.78
2022-12-03T15:09:31.270Z,85.07
2022-12-03T15:12:18.133Z,85.80
2022-12-03T15:15:05.518Z,87.03
2022-12-03T15:17:52.899Z,79.35
2022-12-03T15:20:39.921Z,82.28
2022-12-03T15:23:26.743Z,90.82
2022-12-03T15:26:15.743Z,93.20
2022-12-03T15:29:03.062Z,86.00
2022-12-03T15:31:50.026Z,84.68
2022-12-03T15:34:37.179Z,94.45
2022-12-03T15:37:27.598Z,93.85
2022-12-03T15:40:15.208Z,85.75
2022-12-03T15:43:03.431Z,84.20
2022-12-03T15:45:50.294Z,94.78
2022-12-03T15:48:37.840Z,88.18
2022-12-03T15:51:25.446Z,95.45
2022-12-03T15:54:12.941Z,84.22
2022-12-03T15:56:59.836Z,91.68
2022-12-03T15:59:48.269Z,89.35
2022-12-03T16:02:35.233Z,86.28
2022-12-03T16:05:22.058Z,88.82
2022-12-03T16:08:09.220Z,90.00
2022-12-03T16:10:56.282Z,91.93
2022-12-03T16:13:43.385Z,91.80
2022-12-03T16:16:32.081Z,94.00
2022-12-03T16:19:18.887Z,95.25
2022-12-03T16:22:05.817Z,104.22
2022-12-03T16:24:53.021Z,105.82
2022-12-03T16:27:40.010Z,89.82
2022-12-03T16:30:27.298Z,103.40
2022-12-03T16:33:15.612Z,104.50
2022-12-03T16:36:02.613Z,108.70
2022-12-03T16:38:49.963Z,108.20
2022-12-03T16:41:36.993Z,106.28
2022-12-03T16:44:33.572Z,99.72
2022-12-03T16:47:20.488Z,113.47
2022-12-03T16:50:14.243Z,106.53
2022-12-03T16:53:03.244Z,113.00
2022-12-03T16:55:50.944Z,97.60
2022-12-03T16:58:38.372Z,113.82
2022-12-03T17:01:25.506Z,98.78
2022-12-03T17:04:12.561Z,112.38
2022-12-03T17:07:01.059Z,98.40
2022-12-03T17:09:48.330Z,118.28
2022-12-03T17:13:07.244Z,110.00
2022-12-03T17:18:29.406Z,108.57
2022-12-03T17:21:16.343Z,105.78
2022-12-03T17:24:04.600Z,108.25
2022-12-03T17:26:51.713Z,116.53
2022-12-03T17:29:39.521Z,116.80
2022-12-03T17:32:43.346Z,113.88
2022-12-03T17:35:30.124Z,106.90
2022-12-03T17:38:17.334Z,105.85
2022-12-03T17:41:07.418Z,99.80
2022-12-03T17:43:54.969Z,99.50
2022-12-03T17:46:42.043Z,104.88
2022-12-03T17:49:31.671Z,109.43
2022-12-03T17:52:19.120Z,109.65
2022-12-03T17:55:12.141Z,110.97
2022-12-03T17:58:02.773Z,113.05
2022-12-03T18:00:49.587Z,100.75
2022-12-03T18:03:36.349Z,105.90
2022-12-03T18:06:23.964Z,112.97
2022-12-03T18:09:12.854Z,111.95
2022-12-03T18:11:59.846Z,100.22
2022-12-03T18:14:48.124Z,117.88
2022-12-03T18:17:35.405Z,96.45
2022-12-03T18:20:22.677Z,100.60
2022-12-03T18:23:09.633Z,110.25
2022-12-03T18:25:57.075Z,104.70
2022-12-03T18:28:44.106Z,105.20
2022-12-03T18:31:32.700Z,109.63
2022-12-03T18:34:20.002Z,111.28
2022-12-03T18:37:07.366Z,104.72
2022-12-03T18:39:55.044Z,105.78
2022-12-03T18:42:42.454Z,115.00
2022-12-03T18:45:29.718Z,101.85
2022-12-03T18:48:20.506Z,100.00
2022-12-03T18:51:15.457Z,115.55
2022-12-03T18:54:02.516Z,109.97
2022-12-03T18:56:49.525Z,107.88
2022-12-03T18:59:38.084Z,112.95
2022-12-03T19:03:00.616Z,103.95
2022-12-03T19:05:34.657Z,100.40
2022-12-03T19:08:22.299Z,108.05
2022-12-03T19:11:10.210Z,113.63
2022-12-03T19:13:59.032Z,110.22
2022-12-03T19:16:45.718Z,103.07
2022-12-03T19:19:32.888Z,108.15
2022-12-03T19:22:21.473Z,88.07
2022-12-03T19:25:08.829Z,102.30
2022-12-03T19:27:57.103Z,96.25
2022-12-03T19:30:44.047Z,93.13
2022-12-03T19:33:32.585Z,102.38
2022-12-03T19:36:22.512Z,108.65
2022-12-03T19:39:10.926Z,98.55
2022-12-03T19:41:57.940Z,115.15
2022-12-03T19:44:44.939Z,94.35
2022-12-03T19:47:33.105Z,96.00
2022-12-03T19:50:23.190Z,105.00
2022-12-03T19:53:10.875Z,104.82
2022-12-03T19:56:04.273Z,101.45
2022-12-03T19:58:55.259Z,100.63
2022-12-03T20:01:43.479Z,101.82
2022-12-03T20:04:30.822Z,93.60
2022-12-03T20:07:17.882Z,98.15
2022-12-03T20:10:05.986Z,101.40
2022-12-03T20:12:54.507Z,97.05
2022-12-03T20:15:41.321Z,92.35
2022-12-03T20:18:28.287Z,94.45
2022-12-03T20:21:16.506Z,95.00
2022-12-03T20:24:04.341Z,99.43
2022-12-03T20:26:51.599Z,93.80
2022-12-03T20:29:39.906Z,94.18
2022-12-03T20:32:26.923Z,97.85
2022-12-03T20:35:14.232Z,96.65
2022-12-03T20:38:01.173Z,100.82
2022-12-03T20:40:48.389Z,90.10
2022-12-03T20:43:35.706Z,98.85
2022-12-03T20:46:25.501Z,103.60
2022-12-03T20:49:12.504Z,99.13
2022-12-03T20:52:02.876Z,92.28
2022-12-03T20:54:51.836Z,102.65
2022-12-03T20:57:39.075Z,93.25
2022-12-03T21:00:26.665Z,104.47
2022-12-03T21:03:15.380Z,91.00
2022-12-03T21:06:02.790Z,90.45
2022-12-03T21:08:50.289Z,103.25
2022-12-03T21:11:39.174Z,88.85
2022-12-03T21:14:26.441Z,95.47
2022-12-03T21:17:13.667Z,88.20
2022-12-03T21:20:02.403Z,86.20
2022-12-03T21:22:50.865Z,91.85
2022-12-03T21:25:39.109Z,96.47
2022-12-03T21:28:26.052Z,96.47
2022-12-03T21:31:14.881Z,92.90
2022-12-03T21:34:02.923Z,85.30
2022-12-03T21:36:51.476Z,89.28
2022-12-03T21:39:38.627Z,83.28
2022-12-03T21:42:35.629Z,99.57
2022-12-03T21:45:26.331Z,80.25
2022-12-03T21:48:15.179Z,91.55
2022-12-03T21:51:04.301Z,103.97
2022-12-03T21:53:52.696Z,97.97
2022-12-03T21:56:39.507Z,83.43
2022-12-03T21:59:26.625Z,92.82
2022-12-03T22:02:14.051Z,90.90
2022-12-03T22:05:01.213Z,87.57
2022-12-03T22:07:48.418Z,91.07
2022-12-03T22:10:37.061Z,92.72
2022-12-03T22:13:24.058Z,96.95
2022-12-03T22:16:13.274Z,101.30
2022-12-03T22:19:00.646Z,91.22
2022-12-03T22:21:47.806Z,86.07
2022-12-03T22:24:34.878Z,84.22
2022-12-03T22:27:23.329Z,96.68
2022-12-03T22:30:10.835Z,81.32
2022-12-03T22:32:57.645Z,88.90
2022-12-03T22:35:44.733Z,79.88
2022-12-03T22:38:33.460Z,81.07
2022-12-03T22:41:21.077Z,80.30
2022-12-03T22:44:09.615Z,92.85
2022-12-03T22:46:56.667Z,93.10
2022-12-03T22:49:43.708Z,84.00
2022-12-03T22:52:31.682Z,77.43
2022-12-03T22:55:18.747Z,85.25
2022-12-03T22:58:05.927Z,95.18
2022-12-03T23:00:59.780Z,102.70
2022-12-03T23:03:50.075Z,86.63
2022-12-03T23:06:38.283Z,79.15
2022-12-03T23:09:25.137Z,95.43
2022-12-03T23:12:12.242Z,89.30
2022-12-03T23:14:59.295Z,96.72
2022-12-03T23:17:47.654Z,79.90
2022-12-03T23:20:34.548Z,80.70
2022-12-03T23:23:23.131Z,84.20
2022-12-03T23:26:11.874Z,76.97
2022-12-03T23:28:59.214Z,85.53
2022-12-03T23:31:46.413Z,93.13
2022-12-03T23:34:36.152Z,89.45
2022-12-03T23:37:23.705Z,85.68
2022-12-03T23:40:12.271Z,93.43
2022-12-03T23:42:59.469Z,87.07
2022-12-03T23:45:46.473Z,87.95
2022-12-03T23:48:33.611Z,73.95
2022-12-03T23:51:24.330Z,91.55
2022-12-03T23:54:12.173Z,81.25
2022-12-03T23:56:59.376Z,81.88
2022-12-03T23:59:46.519Z,83.45
